createdAt,value
2023-02-05T00:00:08.339Z,9.07
2023-02-05T00:02:35.078Z,9.50
2023-02-05T00:05:01.752Z,9.13
2023-02-05T00:07:28.245Z,9.60
2023-02-05T00:09:54.867Z,9.93
2023-02-05T00:12:21.371Z,9.02
2023-02-05T00:14:49.318Z,9.38
2023-02-05T00:17:16.559Z,9.43
2023-02-05T00:19:43.120Z,9.88
2023-02-05T00:22:09.594Z,9.40
2023-02-05T00:24:36.743Z,10.57
2023-02-05T00:27:03.510Z,9.30
2023-02-05T00:29:30.167Z,9.55
2023-02-05T00:31:58.069Z,9.18
2023-02-05T00:34:24.641Z,9.73
2023-02-05T00:36:51.326Z,9.15
2023-02-05T00:39:17.886Z,8.75
2023-02-05T00:41:44.694Z,8.43
2023-02-05T00:44:11.271Z,8.63
2023-02-05T00:46:37.814Z,8.83
2023-02-05T00:49:05.705Z,8.02
2023-02-05T00:51:35.471Z,8.57
2023-02-05T00:54:02.048Z,9.15
2023-02-05T00:56:28.506Z,8.30
2023-02-05T00:58:55.296Z,8.77
2023-02-05T01:01:22.048Z,8.80
2023-02-05T01:03:48.769Z,7.70
2023-02-05T01:06:16.802Z,7.93
2023-02-05T01:08:43.325Z,8.65
2023-02-05T01:11:10.548Z,7.67
2023-02-05T01:13:37.297Z,7.97
2023-02-05T01:16:04.314Z,8.40
2023-02-05T01:18:30.938Z,8.35
2023-02-05T01:20:57.431Z,8.57
2023-02-05T01:23:25.324Z,8.27
2023-02-05T01:25:51.800Z,9.18
2023-02-05T01:28:18.400Z,8.27
2023-02-05T01:30:47.943Z,8.75
2023-02-05T01:33:14.628Z,10.15
2023-02-05T01:35:41.459Z,9.37
2023-02-05T01:38:08.184Z,9.20
2023-02-05T01:40:36.347Z,8.68
2023-02-05T01:43:02.927Z,9.98
2023-02-05T01:45:46.806Z,9.35
2023-02-05T01:48:13.367Z,8.97
2023-02-05T01:50:43.117Z,9.25
2023-02-05T01:53:12.002Z,10.30
2023-02-05T01:55:45.278Z,11.63
2023-02-05T01:58:12.232Z,8.82
2023-02-05T02:00:38.734Z,9.13
2023-02-05T02:03:05.696Z,9.75
2023-02-05T02:05:32.473Z,10.43
2023-02-05T02:07:59.196Z,8.88
2023-02-05T02:10:26.205Z,9.13
2023-02-05T02:12:54.830Z,9.53
2023-02-05T02:15:23.614Z,9.43
2023-02-05T02:17:54.159Z,9.50
2023-02-05T02:20:25.322Z,9.57
2023-02-05T02:23:13.036Z,9.02
2023-02-05T02:26:04.538Z,9.30
2023-02-05T02:28:39.796Z,8.13
2023-02-05T02:31:10.542Z,8.73
2023-02-05T02:33:44.857Z,9.70
2023-02-05T02:36:16.550Z,8.98
2023-02-05T02:38:46.758Z,9.57
2023-02-05T02:41:17.928Z,9.77
2023-02-05T02:43:50.769Z,9.60
2023-02-05T02:46:21.366Z,9.40
2023-02-05T02:48:50.907Z,9.65
2023-02-05T02:51:19.877Z,9.40
2023-02-05T02:53:49.810Z,10.00
2023-02-05T02:56:18.538Z,9.10
2023-02-05T02:58:48.736Z,9.73
2023-02-05T03:01:19.472Z,9.77
2023-02-05T03:03:54.575Z,9.20
2023-02-05T03:06:22.461Z,10.18
2023-02-05T03:08:54.504Z,10.13
2023-02-05T03:11:21.155Z,9.43
2023-02-05T03:13:49.279Z,10.30
2023-02-05T03:16:19.792Z,9.47
2023-02-05T03:18:47.510Z,10.43
2023-02-05T03:21:17.723Z,10.13
2023-02-05T03:23:44.808Z,10.25
2023-02-05T03:26:25.992Z,10.57
2023-02-05T03:28:55.148Z,10.30
2023-02-05T03:31:29.261Z,10.02
2023-02-05T03:34:07.906Z,10.77
2023-02-05T03:36:46.884Z,9.15
2023-02-05T03:39:29.286Z,9.77
2023-02-05T03:42:10.359Z,9.90
2023-02-05T03:45:04.676Z,10.15
2023-02-05T03:47:38.484Z,9.75
2023-02-05T03:50:16.858Z,9.65
2023-02-05T03:52:57.281Z,9.90
2023-02-05T03:55:29.427Z,9.93
2023-02-05T03:58:00.856Z,9.43
2023-02-05T04:00:29.102Z,9.15
2023-02-05T04:02:56.992Z,8.05
2023-02-05T04:05:23.510Z,9.95
2023-02-05T04:07:50.696Z,9.33
2023-02-05T04:10:18.110Z,9.85
2023-02-05T04:12:44.952Z,9.50
2023-02-05T04:15:11.771Z,10.13
2023-02-05T04:17:39.928Z,10.13
2023-02-05T04:20:08.175Z,8.80
2023-02-05T04:22:34.685Z,8.25
2023-02-05T04:25:01.473Z,9.60
2023-02-05T04:27:28.000Z,9.00
2023-02-05T04:29:54.470Z,9.23
2023-02-05T04:32:21.046Z,9.17
2023-02-05T04:34:48.861Z,9.48
2023-02-05T04:37:15.438Z,8.50
2023-02-05T04:39:41.955Z,8.35
2023-02-05T04:42:08.448Z,8.18
2023-02-05T04:44:35.000Z,8.27
2023-02-05T04:47:01.653Z,8.45
2023-02-05T04:49:28.190Z,9.05
2023-02-05T04:51:56.004Z,9.85
2023-02-05T04:54:22.530Z,10.68
2023-02-05T04:56:49.074Z,10.70
2023-02-05T04:59:15.564Z,10.68
2023-02-05T05:01:42.330Z,12.10
2023-02-05T05:04:08.897Z,10.05
2023-02-05T05:06:35.448Z,10.43
2023-02-05T05:09:03.460Z,11.33
2023-02-05T05:11:30.035Z,11.10
2023-02-05T05:13:57.162Z,12.05
2023-02-05T05:16:23.669Z,11.02
2023-02-05T05:18:51.542Z,12.30
2023-02-05T05:21:18.164Z,11.80
2023-02-05T05:23:44.778Z,12.05
2023-02-05T05:26:12.795Z,11.65
2023-02-05T05:28:39.642Z,12.35
2023-02-05T05:31:07.795Z,12.15
2023-02-05T05:33:34.356Z,12.20
2023-02-05T05:36:00.875Z,12.15
2023-02-05T05:38:27.402Z,12.02
2023-02-05T05:40:53.972Z,11.80
2023-02-05T05:43:21.923Z,13.25
2023-02-05T05:45:49.358Z,12.77
2023-02-05T05:48:15.868Z,14.15
2023-02-05T05:50:42.350Z,13.82
2023-02-05T05:53:08.839Z,14.27
2023-02-05T05:55:35.926Z,14.95
2023-02-05T05:58:02.486Z,15.60
2023-02-05T06:00:30.406Z,15.50
2023-02-05T06:02:56.947Z,16.25
2023-02-05T06:05:23.486Z,17.05
2023-02-05T06:07:49.964Z,16.75
2023-02-05T06:10:16.726Z,16.90
2023-02-05T06:12:43.188Z,16.58
2023-02-05T06:15:10.117Z,16.45
2023-02-05T06:17:38.099Z,17.10
2023-02-05T06:20:05.057Z,17.77
2023-02-05T06:22:31.879Z,17.67
2023-02-05T06:24:58.336Z,17.45
2023-02-05T06:27:25.220Z,18.65
2023-02-05T06:29:51.723Z,17.20
2023-02-05T06:32:18.245Z,17.38
2023-02-05T06:34:46.098Z,16.37
2023-02-05T06:37:12.595Z,17.33
2023-02-05T06:39:39.135Z,17.05
2023-02-05T06:42:06.322Z,17.83
2023-02-05T06:44:32.827Z,16.60
2023-02-05T06:46:59.407Z,17.40
2023-02-05T06:49:26.091Z,17.02
2023-02-05T06:51:54.366Z,16.33
2023-02-05T06:54:20.875Z,16.67
2023-02-05T06:56:47.338Z,16.73
2023-02-05T06:59:13.874Z,17.37
2023-02-05T07:01:40.427Z,16.90
2023-02-05T07:04:07.108Z,15.52
2023-02-05T07:06:33.568Z,16.38
2023-02-05T07:09:01.399Z,16.33
2023-02-05T07:11:27.958Z,16.00
2023-02-05T07:13:54.544Z,15.68
2023-02-05T07:16:21.123Z,15.30
2023-02-05T07:18:48.196Z,14.88
2023-02-05T07:21:16.271Z,14.93
2023-02-05T07:23:43.193Z,14.23
2023-02-05T07:26:15.484Z,14.73
2023-02-05T07:28:42.636Z,14.27
2023-02-05T07:31:12.372Z,14.18
2023-02-05T07:33:39.022Z,13.88
2023-02-05T07:36:08.029Z,14.17
2023-02-05T07:38:35.474Z,13.35
2023-02-05T07:41:03.579Z,14.15
2023-02-05T07:43:31.479Z,12.63
2023-02-05T07:45:58.962Z,13.30
2023-02-05T07:48:26.112Z,12.77
2023-02-05T07:50:52.694Z,12.88
2023-02-05T07:53:19.204Z,12.48
2023-02-05T07:55:46.599Z,11.65
2023-02-05T07:58:13.601Z,11.10
2023-02-05T08:00:42.020Z,12.30
2023-02-05T08:03:09.452Z,11.82
2023-02-05T08:06:03.993Z,11.77
2023-02-05T08:12:09.256Z,11.02
2023-02-05T08:14:48.212Z,10.87
2023-02-05T08:17:17.257Z,9.85
2023-02-05T08:19:43.788Z,10.43
2023-02-05T08:22:10.295Z,9.65
2023-02-05T08:24:36.820Z,9.30
2023-02-05T08:27:13.512Z,8.10
2023-02-05T08:29:43.675Z,8.40
2023-02-05T08:32:10.187Z,9.23
2023-02-05T08:34:38.133Z,8.93
2023-02-05T08:37:04.738Z,9.50
2023-02-05T08:39:31.282Z,9.37
2023-02-05T08:41:57.837Z,8.38
2023-02-05T08:44:24.610Z,8.65
2023-02-05T08:46:51.135Z,6.75
2023-02-05T08:49:17.978Z,5.38
2023-02-05T08:51:46.032Z,5.00
2023-02-05T08:54:12.699Z,4.10
2023-02-05T08:56:39.444Z,4.43
2023-02-05T08:59:06.490Z,3.00
2023-02-05T09:01:33.017Z,2.45
2023-02-05T09:04:00.305Z,1.47
2023-02-05T09:06:27.097Z,1.17
2023-02-05T09:08:54.980Z,0.93
2023-02-05T09:11:22.530Z,0.98
2023-02-05T09:13:49.184Z,1.25
2023-02-05T09:16:15.725Z,0.90
2023-02-05T09:18:42.324Z,1.00
2023-02-05T09:21:10.176Z,0.50
2023-02-05T09:23:47.748Z,0.65
2023-02-05T09:26:15.688Z,0.50
2023-02-05T09:28:42.366Z,0.70
2023-02-05T09:31:12.022Z,0.50
2023-02-05T09:33:49.505Z,1.15
2023-02-05T09:36:18.106Z,1.00
2023-02-05T09:38:44.729Z,0.88
2023-02-05T09:41:24.662Z,0.83
2023-02-05T09:43:55.800Z,1.33
2023-02-05T09:46:32.197Z,1.17
2023-02-05T09:49:14.648Z,0.60
2023-02-05T09:51:45.112Z,0.98
2023-02-05T09:54:17.710Z,0.80
2023-02-05T09:56:48.459Z,0.70
2023-02-05T10:10:16.198Z,0.87
2023-02-05T10:13:03.601Z,0.98
2023-02-05T10:16:34.548Z,1.85
2023-02-05T10:19:32.749Z,2.50
2023-02-05T10:22:17.018Z,3.10
2023-02-05T10:25:03.180Z,3.30
2023-02-05T10:27:51.946Z,3.63
2023-02-05T10:30:31.213Z,2.80
2023-02-05T10:33:00.842Z,2.72
2023-02-05T10:35:38.356Z,2.58
2023-02-05T10:38:17.988Z,2.40
2023-02-05T10:40:49.053Z,2.40
2023-02-05T10:43:39.452Z,2.00
2023-02-05T10:46:15.793Z,2.13
2023-02-05T10:49:21.319Z,1.80
2023-02-05T10:52:04.436Z,1.70
2023-02-05T10:54:49.911Z,1.75
2023-02-05T11:00:53.141Z,1.95
2023-02-05T11:03:54.159Z,1.38
2023-02-05T11:09:34.145Z,1.58
2023-02-05T11:12:28.393Z,2.00
2023-02-05T11:15:15.610Z,1.95
2023-02-05T11:18:00.159Z,2.08
2023-02-05T11:21:08.929Z,2.50
2023-02-05T11:23:42.028Z,1.55
2023-02-05T11:26:30.076Z,1.80
2023-02-05T11:29:06.258Z,1.90
2023-02-05T11:31:46.760Z,1.58
2023-02-05T11:34:54.450Z,1.70
2023-02-05T12:01:28.170Z,1.30
2023-02-05T12:07:42.504Z,1.23
2023-02-05T12:10:22.444Z,0.98
2023-02-05T12:13:39.637Z,0.90
2023-02-05T12:16:33.623Z,0.60
2023-02-05T12:19:11.680Z,1.60
2023-02-05T12:28:51.970Z,0.70
2023-02-05T12:31:47.808Z,0.80
2023-02-05T12:34:41.681Z,1.02
2023-02-05T12:37:21.790Z,0.80
2023-02-05T12:39:54.604Z,0.60
2023-02-05T12:42:31.960Z,0.93
2023-02-05T12:45:27.587Z,0.93
2023-02-05T12:48:22.198Z,1.00
2023-02-05T12:51:12.958Z,1.17
2023-02-05T12:53:54.682Z,0.95
2023-02-05T12:57:53.066Z,1.40
2023-02-05T12:59:54.741Z,1.10
2023-02-05T13:02:36.253Z,1.35
2023-02-05T13:05:37.588Z,1.00
2023-02-05T13:16:08.480Z,1.77
2023-02-05T13:18:14.832Z,1.17
2023-02-05T13:21:04.542Z,1.83
2023-02-05T13:23:38.232Z,1.33
2023-02-05T13:26:07.353Z,1.80
2023-02-05T13:28:45.463Z,2.10
2023-02-05T13:31:21.295Z,1.58
2023-02-05T13:33:49.411Z,1.63
2023-02-05T13:36:55.288Z,1.80
2023-02-05T13:39:41.434Z,1.45
2023-02-05T13:42:26.256Z,1.83
2023-02-05T13:45:19.470Z,1.35
2023-02-05T13:48:19.436Z,1.63
2023-02-05T13:51:27.638Z,1.48
2023-02-05T13:54:38.829Z,1.52
2023-02-05T14:00:48.076Z,1.63
2023-02-05T14:05:25.663Z,1.15
2023-02-05T14:06:44.297Z,1.70
2023-02-05T14:09:31.926Z,1.50
2023-02-05T14:12:28.637Z,1.10
2023-02-05T14:16:07.869Z,1.05
2023-02-05T14:19:26.818Z,0.70
2023-02-05T14:25:58.467Z,0.53
2023-02-05T14:28:51.696Z,0.50
2023-02-05T14:31:47.333Z,1.23
2023-02-05T14:34:55.244Z,0.73
2023-02-05T14:37:33.696Z,0.70
2023-02-05T14:40:13.868Z,1.02
2023-02-05T14:42:48.673Z,0.70
2023-02-05T14:45:19.406Z,0.95
2023-02-05T14:47:48.388Z,1.08
2023-02-05T14:50:22.761Z,1.20
2023-02-05T14:52:58.060Z,1.70
2023-02-05T14:55:31.757Z,1.10
2023-02-05T14:58:02.522Z,0.80
2023-02-05T15:00:34.103Z,1.00
2023-02-05T15:03:31.872Z,1.00
2023-02-05T15:06:03.481Z,1.15
2023-02-05T15:08:41.950Z,0.93
2023-02-05T15:11:15.527Z,1.00
2023-02-05T15:14:03.189Z,1.35
2023-02-05T15:16:31.961Z,1.00
2023-02-05T15:19:01.188Z,1.00
2023-02-05T15:21:40.177Z,1.02
2023-02-05T15:24:24.807Z,1.52
2023-02-05T15:27:01.011Z,1.05
2023-02-05T15:30:10.919Z,1.50
2023-02-05T15:32:50.734Z,1.83
2023-02-05T17:09:03.705Z,2.40
2023-02-05T17:22:20.123Z,1.83
2023-02-05T17:24:51.779Z,1.48
2023-02-05T17:27:29.806Z,2.05
2023-02-05T17:30:17.431Z,1.97
2023-02-05T17:33:33.875Z,2.13
2023-02-05T17:43:11.367Z,1.92
2023-02-05T18:05:10.521Z,1.52
2023-02-05T18:10:58.454Z,1.90
2023-02-05T18:13:35.572Z,1.88
2023-02-05T18:20:33.874Z,1.80
2023-02-05T18:23:28.736Z,2.33
2023-02-05T18:29:25.366Z,2.10
2023-02-05T18:32:08.214Z,2.57
2023-02-05T18:34:39.270Z,2.00
2023-02-05T18:37:08.221Z,2.60
2023-02-05T18:39:42.723Z,1.83
2023-02-05T18:42:17.265Z,1.52
2023-02-05T18:44:55.435Z,2.03
2023-02-05T18:47:29.137Z,2.00
2023-02-05T18:50:25.096Z,2.40
2023-02-05T18:58:00.489Z,2.17
2023-02-05T19:04:30.565Z,2.35
2023-02-05T19:32:04.452Z,2.72
2023-02-05T19:34:49.356Z,1.43
2023-02-05T19:37:33.608Z,2.13
2023-02-05T20:00:37.120Z,2.33
2023-02-05T20:06:45.474Z,1.70
2023-02-05T20:13:15.924Z,2.05
2023-02-05T20:16:31.764Z,3.85
2023-02-05T20:19:18.168Z,2.67
2023-02-05T20:22:16.191Z,3.77
2023-02-05T20:24:52.365Z,2.35
2023-02-05T20:27:25.431Z,2.30
2023-02-05T20:29:58.560Z,2.38
2023-02-05T20:32:33.636Z,2.47
2023-02-05T20:35:07.551Z,2.20
2023-02-05T20:37:41.800Z,2.58
2023-02-05T20:40:28.852Z,2.60
2023-02-05T20:53:44.840Z,3.10
2023-02-05T20:57:00.222Z,2.50
2023-02-05T20:59:31.269Z,3.22
2023-02-05T21:02:02.555Z,2.92
2023-02-05T21:05:01.133Z,2.43
2023-02-05T21:17:34.341Z,2.25
2023-02-05T21:26:44.750Z,1.80
2023-02-05T21:29:15.779Z,3.47
2023-02-05T21:31:44.437Z,5.28
2023-02-05T21:34:15.245Z,3.37
2023-02-05T21:36:44.092Z,2.42
2023-02-05T21:39:11.679Z,2.35
2023-02-05T21:41:44.540Z,2.28
2023-02-05T21:44:13.256Z,2.60
2023-02-05T21:46:41.474Z,2.77
2023-02-05T21:49:09.219Z,3.05
2023-02-05T21:51:38.310Z,2.40
2023-02-05T21:54:07.646Z,3.53
2023-02-05T21:56:36.915Z,3.03
2023-02-05T21:59:04.991Z,3.20
2023-02-05T22:01:38.128Z,3.40
2023-02-05T22:04:11.303Z,2.50
2023-02-05T22:06:38.608Z,2.92
2023-02-05T22:09:08.101Z,2.08
2023-02-05T22:11:36.969Z,2.67
2023-02-05T22:14:04.996Z,2.55
2023-02-05T22:16:33.513Z,2.88
2023-02-05T22:19:05.068Z,2.75
2023-02-05T22:21:36.078Z,2.90
2023-02-05T22:24:05.594Z,3.17
2023-02-05T22:26:34.645Z,2.22
2023-02-05T22:29:03.183Z,2.97
2023-02-05T22:31:30.808Z,3.13
2023-02-05T22:33:58.358Z,2.93
2023-02-05T22:36:28.304Z,3.05
2023-02-05T22:38:59.191Z,2.42
2023-02-05T22:41:27.662Z,2.30
2023-02-05T22:43:54.954Z,3.08
2023-02-05T22:46:23.916Z,3.30
2023-02-05T22:48:51.608Z,3.28
2023-02-05T22:51:20.232Z,2.65
2023-02-05T22:53:48.222Z,2.45
2023-02-05T22:56:15.941Z,2.20
2023-02-05T22:58:44.635Z,2.80
2023-02-05T23:01:13.545Z,2.17
2023-02-05T23:03:40.705Z,2.55
2023-02-05T23:06:11.450Z,2.50
2023-02-05T23:08:38.586Z,2.03
2023-02-05T23:11:08.116Z,1.90
2023-02-05T23:13:35.134Z,2.42
2023-02-05T23:16:06.947Z,1.90
2023-02-05T23:18:33.517Z,2.50
2023-02-05T23:21:00.048Z,2.28
2023-02-05T23:23:26.701Z,2.47
2023-02-05T23:25:53.185Z,2.25
2023-02-05T23:28:21.272Z,2.40
2023-02-05T23:30:47.959Z,2.58
2023-02-05T23:33:14.534Z,2.80
2023-02-05T23:35:41.010Z,2.30
2023-02-05T23:38:07.523Z,2.08
2023-02-05T23:40:34.123Z,2.78
2023-02-05T23:43:00.648Z,2.60
2023-02-05T23:45:28.484Z,2.33
2023-02-05T23:47:55.458Z,2.95
2023-02-05T23:50:22.012Z,2.45
2023-02-05T23:52:48.470Z,2.25
2023-02-05T23:55:15.251Z,2.60
2023-02-05T23:57:41.814Z,2.43
